createdAt,value
2022-08-30T00:06:20.170Z,27.09
2022-08-30T00:12:58.724Z,27.16
2022-08-30T00:19:36.222Z,27.3
2022-08-30T00:26:05.143Z,27.25
2022-08-30T00:32:40.955Z,27.22
2022-08-30T00:39:16.236Z,27.3
2022-08-30T00:45:55.212Z,27.4
2022-08-30T00:52:43.745Z,27.34
2022-08-30T00:59:30.583Z,27.35
2022-08-30T01:06:02.152Z,27.17
2022-08-30T01:12:36.150Z,27.24
2022-08-30T01:19:08.555Z,27.16
2022-08-30T01:26:03.021Z,27.18
2022-08-30T01:32:42.369Z,27.16
2022-08-30T01:39:19.257Z,27.12
2022-08-30T01:45:51.114Z,27.16
2022-08-30T01:52:39.158Z,27.1
2022-08-30T01:59:12.107Z,27.1
2022-08-30T02:05:41.464Z,27.11
2022-08-30T02:12:07.229Z,27.1
2022-08-30T02:18:36.107Z,27.15
2022-08-30T02:25:06.562Z,27.1
2022-08-30T02:31:49.208Z,27.08
2022-08-30T02:38:16.433Z,27.1
2022-08-30T02:44:50.721Z,27.02
2022-08-30T02:51:23.047Z,27.08
2022-08-30T02:58:04.202Z,27.13
2022-08-30T03:04:46.392Z,27.17
2022-08-30T03:11:20.630Z,27.1
2022-08-30T03:17:50.173Z,27.23
2022-08-30T03:24:20.224Z,27.06
2022-08-30T03:30:55.234Z,27.29
2022-08-30T03:37:24.415Z,27.29
2022-08-30T03:43:51.772Z,27.24
2022-08-30T03:50:28.188Z,27.15
2022-08-30T03:56:55.160Z,27.29
2022-08-30T04:03:32.231Z,27.28
2022-08-30T04:09:56.207Z,27.41
2022-08-30T04:16:33.301Z,27.42
2022-08-30T04:23:03.223Z,27.3
2022-08-30T04:29:34.493Z,27.32
2022-08-30T04:36:05.257Z,27.35
2022-08-30T04:42:39.251Z,27.21
2022-08-30T04:49:29.269Z,27.31
2022-08-30T04:56:11.650Z,27.28
2022-08-30T05:02:48.345Z,27.38
2022-08-30T05:09:30.345Z,27.34
2022-08-30T05:16:04.483Z,27.21
2022-08-30T05:22:37.366Z,27.07
2022-08-30T05:29:10.314Z,27
2022-08-30T05:35:49.651Z,27.01
2022-08-30T05:42:17.251Z,26.99
2022-08-30T05:48:42.822Z,27
2022-08-30T05:55:09.204Z,27.02
2022-08-30T06:01:42.374Z,27.05
2022-08-30T06:08:08.227Z,26.95
2022-08-30T06:14:42.342Z,26.96
2022-08-30T06:21:19.234Z,26.95
2022-08-30T06:27:54.532Z,26.99
2022-08-30T06:34:32.599Z,27
2022-08-30T06:40:56.365Z,27.07
2022-08-30T06:47:44.925Z,27.11
2022-08-30T06:54:12.340Z,27.16
2022-08-30T07:00:58.347Z,27.11
2022-08-30T07:07:35.690Z,27.15
2022-08-30T07:14:25.708Z,27.14
2022-08-30T07:21:04.652Z,27.24
2022-08-30T07:27:50.431Z,27.18
2022-08-30T07:34:27.625Z,27.22
2022-08-30T07:41:04.434Z,27.15
2022-08-30T07:47:40.669Z,27.1
2022-08-30T07:54:08.239Z,27.01
2022-08-30T08:00:45.327Z,27.03
2022-08-30T08:07:14.159Z,27
2022-08-30T08:13:37.887Z,27.01
2022-08-30T08:20:30.816Z,27.02
2022-08-30T08:26:58.895Z,27.05
2022-08-30T08:33:29.533Z,27.04
2022-08-30T08:39:54.318Z,27.07
2022-08-30T08:46:53.902Z,27.09
2022-08-30T08:53:50.574Z,27.07
2022-08-30T09:00:32.848Z,27.06
2022-08-30T09:07:18.841Z,27.06
2022-08-30T09:14:01.638Z,27.07
2022-08-30T09:20:44.373Z,27.07
2022-08-30T09:27:25.487Z,27.08
2022-08-30T09:34:25.312Z,27.05
2022-08-30T09:41:30.927Z,27.08
2022-08-30T09:48:23.417Z,27.09
2022-08-30T09:55:34.774Z,27.1
2022-08-30T10:02:48.374Z,27.05
2022-08-30T10:10:05.792Z,27.07
2022-08-30T10:17:20.234Z,27.1
2022-08-30T10:24:38.629Z,27.07
2022-08-30T10:31:33.437Z,27.15
2022-08-30T10:38:36.687Z,27.14
2022-08-30T10:45:44.550Z,27.1
2022-08-30T10:52:54.408Z,27.07
2022-08-30T10:59:41.408Z,27.15
2022-08-30T11:06:40.723Z,27.11
2022-08-30T11:13:57.468Z,27.13
2022-08-30T11:21:14.247Z,27.14
2022-08-30T11:28:27.430Z,27.13
2022-08-30T11:35:25.675Z,27.11
2022-08-30T11:42:29.480Z,27.2
2022-08-30T11:49:36.016Z,27.17
2022-08-30T11:56:57.393Z,27.14
2022-08-30T12:04:09.836Z,27.16
2022-08-30T12:11:24.454Z,27.28
2022-08-30T12:18:19.587Z,27.2
2022-08-30T12:25:17.525Z,27.23
2022-08-30T12:32:32.450Z,27.41
2022-08-30T12:39:25.618Z,27.35
2022-08-30T12:46:18.329Z,27.53
2022-08-30T12:53:00.941Z,27.43
2022-08-30T12:59:58.075Z,27.41
2022-08-30T13:07:04.754Z,27.55
2022-08-30T13:13:58.910Z,27.57
2022-08-30T13:21:07.507Z,27.62
2022-08-30T13:27:53.665Z,27.66
2022-08-30T13:34:32.529Z,27.58
2022-08-30T13:41:01.858Z,27.53
2022-08-30T13:47:35.602Z,27.51
2022-08-30T13:54:10.469Z,27.51
2022-08-30T14:00:51.093Z,27.49
2022-08-30T14:07:35.847Z,27.49
2022-08-30T14:14:15.230Z,27.52
2022-08-30T14:21:00.487Z,27.59
2022-08-30T14:27:36.156Z,27.64
2022-08-30T14:34:17.644Z,27.73
2022-08-30T14:40:44.477Z,27.68
2022-08-30T14:47:19.641Z,27.7
2022-08-30T14:53:48.877Z,27.67
2022-08-30T15:00:19.612Z,27.69
2022-08-30T15:06:59.457Z,27.69
2022-08-30T15:13:52.770Z,27.78
2022-08-30T15:20:21.584Z,27.7
2022-08-30T15:26:46.580Z,27.66
2022-08-30T15:33:18.935Z,27.69
2022-08-30T15:39:52.901Z,27.63
2022-08-30T15:46:29.559Z,27.63
2022-08-30T15:53:23.594Z,27.64
2022-08-30T16:00:03.608Z,27.79
2022-08-30T16:07:00.042Z,27.84
2022-08-30T16:13:26.166Z,27.78
2022-08-30T16:19:58.537Z,28.07
2022-08-30T16:26:32.448Z,28.02
2022-08-30T16:32:59.891Z,28.01
2022-08-30T16:39:31.062Z,27.95
2022-08-30T16:46:01.611Z,27.94
2022-08-30T16:52:43.595Z,27.77
2022-08-30T16:59:11.282Z,27.57
2022-08-30T17:05:38.651Z,27.43
2022-08-30T17:12:11.721Z,27.28
2022-08-30T17:18:39.635Z,27.08
2022-08-30T17:25:11.077Z,26.95
2022-08-30T17:31:38.824Z,26.96
2022-08-30T17:38:03.008Z,26.92
2022-08-30T17:44:43.639Z,26.8
2022-08-30T17:51:31.658Z,26.77
2022-08-30T17:57:57.647Z,26.76
2022-08-30T18:04:24.792Z,26.79
2022-08-30T18:11:01.398Z,26.89
2022-08-30T18:17:39.105Z,27.09
2022-08-30T18:24:19.702Z,27.33
2022-08-30T18:30:55.694Z,27.47
2022-08-30T18:37:26.754Z,27.52
2022-08-30T18:44:24.267Z,27.53
2022-08-30T18:50:48.652Z,27.4
2022-08-30T18:57:16.837Z,27.44
2022-08-30T19:03:42.712Z,27.41
2022-08-30T19:10:20.929Z,27.49
2022-08-30T19:16:44.654Z,27.49
2022-08-30T19:23:09.372Z,27.42
2022-08-30T19:29:45.472Z,27.5
2022-08-30T19:36:20.699Z,27.53
2022-08-30T19:43:05.815Z,27.67
2022-08-30T19:49:44.797Z,27.64
2022-08-30T19:56:26.861Z,27.67
2022-08-30T20:02:59.195Z,27.64
2022-08-30T20:09:24.799Z,27.66
2022-08-30T20:16:04.289Z,27.78
2022-08-30T20:22:30.873Z,27.69
2022-08-30T20:29:08.772Z,27.68
2022-08-30T20:35:49.238Z,27.6
2022-08-30T20:42:30.740Z,27.66
2022-08-30T20:49:05.917Z,27.63
2022-08-30T20:55:39.756Z,27.67
2022-08-30T21:02:16.903Z,27.6
2022-08-30T21:08:42.205Z,27.69
2022-08-30T21:15:37.513Z,27.6
2022-08-30T21:22:12.736Z,27.62
2022-08-30T21:28:35.879Z,27.68
2022-08-30T21:35:04.456Z,27.85
2022-08-30T21:41:40.893Z,27.96
2022-08-30T21:48:15.906Z,27.99
2022-08-30T21:54:46.931Z,27.87
2022-08-30T22:01:18.928Z,27.85
2022-08-30T22:07:49.308Z,27.8
2022-08-30T22:14:24.826Z,27.68
2022-08-30T22:20:57.846Z,27.68
2022-08-30T22:27:22.939Z,27.66
2022-08-30T22:33:52.248Z,27.65
2022-08-30T22:40:22.957Z,27.61
2022-08-30T22:46:47.741Z,27.66
2022-08-30T22:53:19.954Z,27.63
2022-08-30T22:59:47.013Z,27.61
2022-08-30T23:06:18.867Z,27.59
2022-08-30T23:12:45.708Z,27.63
2022-08-30T23:19:14.172Z,27.61
2022-08-30T23:25:54.015Z,27.64
2022-08-30T23:32:32.340Z,27.6
2022-08-30T23:38:55.947Z,27.67
2022-08-30T23:45:32.894Z,27.65
2022-08-30T23:51:57.775Z,27.74
2022-08-30T23:58:35.426Z,27.69
